createdAt,value
2023-04-02T00:00:33.839Z,0.63
2023-04-02T00:03:01.990Z,0.68
2023-04-02T00:05:34.625Z,1.67
2023-04-02T00:08:03.484Z,1.08
2023-04-02T00:10:31.875Z,1.00
2023-04-02T00:13:11.075Z,1.60
2023-04-02T00:15:39.056Z,0.45
2023-04-02T00:18:06.070Z,0.95
2023-04-02T00:20:36.815Z,0.30
2023-04-02T00:23:03.730Z,0.93
2023-04-02T00:25:31.612Z,1.98
2023-04-02T00:27:58.305Z,1.50
2023-04-02T00:30:25.011Z,1.20
2023-04-02T00:32:51.941Z,0.40
2023-04-02T00:35:27.775Z,0.85
2023-04-02T00:37:54.625Z,1.55
2023-04-02T00:40:26.368Z,0.95
2023-04-02T00:42:54.308Z,0.63
2023-04-02T00:45:33.340Z,0.65
2023-04-02T00:48:01.348Z,0.90
2023-04-02T00:50:33.311Z,0.95
2023-04-02T00:53:00.043Z,0.82
2023-04-02T00:55:39.103Z,0.82
2023-04-02T00:58:33.727Z,2.13
2023-04-02T01:01:00.968Z,2.05
2023-04-02T01:03:30.618Z,0.82
2023-04-02T01:06:16.839Z,2.25
2023-04-02T01:08:50.309Z,0.50
2023-04-02T01:11:32.159Z,0.30
2023-04-02T01:14:20.974Z,1.27
2023-04-02T01:17:18.659Z,0.95
2023-04-02T01:20:23.084Z,0.50
2023-04-02T01:23:08.217Z,0.32
2023-04-02T01:25:48.442Z,0.85
2023-04-02T01:28:47.423Z,0.50
2023-04-02T01:31:14.159Z,1.30
2023-04-02T01:33:41.041Z,1.05
2023-04-02T01:36:21.614Z,0.70
2023-04-02T01:38:58.723Z,0.38
2023-04-02T01:41:40.502Z,0.57
2023-04-02T01:44:12.547Z,0.90
2023-04-02T01:46:41.765Z,0.38
2023-04-02T01:49:14.470Z,0.30
2023-04-02T01:51:46.745Z,0.93
2023-04-02T01:54:14.376Z,0.40
2023-04-02T01:56:41.078Z,0.35
2023-04-02T01:59:07.789Z,0.40
2023-04-02T02:01:53.232Z,0.30
2023-04-02T02:04:20.041Z,0.43
2023-04-02T02:06:47.207Z,0.45
2023-04-02T02:09:28.657Z,0.30
2023-04-02T02:11:56.498Z,0.77
2023-04-02T02:14:25.031Z,0.95
2023-04-02T02:16:53.573Z,0.35
2023-04-02T02:19:40.391Z,0.50
2023-04-02T02:22:12.880Z,0.77
2023-04-02T02:24:39.593Z,0.20
2023-04-02T02:27:24.361Z,0.28
2023-04-02T02:29:52.137Z,0.65
2023-04-02T02:32:20.455Z,0.10
2023-04-02T02:34:49.870Z,0.50
2023-04-02T02:37:19.580Z,0.28
2023-04-02T02:39:48.326Z,0.85
2023-04-02T02:42:18.839Z,0.45
2023-04-02T02:44:48.195Z,0.80
2023-04-02T02:47:16.880Z,3.20
2023-04-02T02:49:49.929Z,0.20
2023-04-02T02:54:47.863Z,0.28
2023-04-02T02:57:26.329Z,0.90
2023-04-02T02:59:53.223Z,2.03
2023-04-02T03:02:20.218Z,0.73
2023-04-02T03:04:48.655Z,1.02
2023-04-02T03:07:16.326Z,0.50
2023-04-02T03:10:14.583Z,1.85
2023-04-02T03:12:46.224Z,0.85
2023-04-02T03:15:12.985Z,0.70
2023-04-02T03:17:59.950Z,1.20
2023-04-02T03:20:44.108Z,0.95
2023-04-02T03:23:31.141Z,1.10
2023-04-02T03:26:02.376Z,0.75
2023-04-02T03:28:34.401Z,0.45
2023-04-02T03:31:26.612Z,1.45
2023-04-02T03:33:57.245Z,0.52
2023-04-02T03:36:25.920Z,1.63
2023-04-02T03:39:11.223Z,0.20
2023-04-02T03:41:42.407Z,0.38
2023-04-02T03:44:34.250Z,3.45
2023-04-02T03:47:09.200Z,1.85
2023-04-02T03:49:53.815Z,1.45
2023-04-02T03:52:25.649Z,0.10
2023-04-02T03:54:54.513Z,0.30
2023-04-02T03:57:48.230Z,0.65
2023-04-02T04:02:48.124Z,0.32
2023-04-02T04:05:36.143Z,0.38
2023-04-02T04:08:14.520Z,1.10
2023-04-02T04:10:41.222Z,0.20
2023-04-02T04:13:16.213Z,0.40
2023-04-02T04:15:49.309Z,0.20
2023-04-02T04:20:56.572Z,0.30
2023-04-02T04:23:36.854Z,0.98
2023-04-02T04:26:09.812Z,0.47
2023-04-02T04:31:18.132Z,0.38
2023-04-02T04:33:46.624Z,0.32
2023-04-02T04:36:29.005Z,0.73
2023-04-02T04:38:59.607Z,0.40
2023-04-02T04:41:32.585Z,0.57
2023-04-02T04:44:22.189Z,0.60
2023-04-02T04:47:01.459Z,1.13
2023-04-02T04:49:33.565Z,0.50
2023-04-02T04:52:21.812Z,1.70
2023-04-02T04:54:48.647Z,0.40
2023-04-02T04:57:27.691Z,0.47
2023-04-02T05:00:07.213Z,1.55
2023-04-02T05:02:45.957Z,0.38
2023-04-02T05:05:40.484Z,0.93
2023-04-02T05:08:14.483Z,1.17
2023-04-02T05:10:52.622Z,0.93
2023-04-02T05:13:23.832Z,0.57
2023-04-02T05:16:21.563Z,0.20
2023-04-02T05:19:07.985Z,0.38
2023-04-02T05:21:45.224Z,0.45
2023-04-02T05:24:30.499Z,0.20
2023-04-02T05:27:00.455Z,2.20
2023-04-02T05:29:29.853Z,0.88
2023-04-02T05:32:03.630Z,0.30
2023-04-02T05:34:34.143Z,0.50
2023-04-02T05:37:02.387Z,0.73
2023-04-02T05:39:29.718Z,0.40
2023-04-02T05:42:08.403Z,0.80
2023-04-02T05:44:39.155Z,0.10
2023-04-02T05:47:25.880Z,0.40
2023-04-02T05:50:05.878Z,1.15
2023-04-02T05:52:35.055Z,0.50
2023-04-02T05:55:13.840Z,0.43
2023-04-02T05:58:10.473Z,1.33
2023-04-02T06:00:39.283Z,0.75
2023-04-02T06:03:49.408Z,2.05
2023-04-02T06:06:43.679Z,0.65
2023-04-02T06:09:23.336Z,0.45
2023-04-02T06:12:19.848Z,1.33
2023-04-02T06:14:46.579Z,1.10
2023-04-02T06:17:16.325Z,0.60
2023-04-02T06:19:43.129Z,0.45
2023-04-02T06:22:24.652Z,0.68
2023-04-02T06:24:58.960Z,1.15
2023-04-02T06:27:26.161Z,0.40
2023-04-02T06:29:55.734Z,1.67
2023-04-02T06:32:24.436Z,1.27
2023-04-02T06:34:51.161Z,0.70
2023-04-02T06:37:22.672Z,0.95
2023-04-02T06:39:49.559Z,0.95
2023-04-02T06:42:21.950Z,0.80
2023-04-02T06:44:48.641Z,0.70
2023-04-02T06:47:47.026Z,1.85
2023-04-02T06:50:36.057Z,0.60
2023-04-02T06:53:09.758Z,0.63
2023-04-02T06:56:00.122Z,1.38
2023-04-02T06:58:26.851Z,1.65
2023-04-02T07:00:53.547Z,1.13
2023-04-02T07:03:25.216Z,0.47
2023-04-02T07:05:52.134Z,1.20
2023-04-02T07:08:18.938Z,1.40
2023-04-02T07:10:45.635Z,2.08
2023-04-02T07:13:22.150Z,0.60
2023-04-02T07:15:53.429Z,1.20
2023-04-02T07:18:30.459Z,0.73
2023-04-02T07:20:57.838Z,2.35
2023-04-02T07:23:25.164Z,0.80
2023-04-02T07:25:55.053Z,0.82
2023-04-02T07:28:22.908Z,1.40
2023-04-02T07:30:50.639Z,0.70
2023-04-02T07:33:19.374Z,0.70
2023-04-02T07:35:46.638Z,1.63
2023-04-02T07:38:13.343Z,1.63
2023-04-02T07:40:40.168Z,0.57
2023-04-02T07:43:07.000Z,1.15
2023-04-02T07:45:34.137Z,1.73
2023-04-02T07:48:08.411Z,1.48
2023-04-02T07:50:35.571Z,1.00
2023-04-02T07:53:02.280Z,0.50
2023-04-02T07:55:28.959Z,0.90
2023-04-02T07:57:57.796Z,1.52
2023-04-02T08:00:25.257Z,1.58
2023-04-02T08:02:52.263Z,0.68
2023-04-02T08:05:19.430Z,2.20
2023-04-02T08:07:57.029Z,0.90
2023-04-02T08:10:24.466Z,1.95
2023-04-02T08:12:51.388Z,0.70
2023-04-02T08:15:18.283Z,0.90
2023-04-02T08:17:45.944Z,1.38
2023-04-02T08:20:20.921Z,1.58
2023-04-02T08:22:48.738Z,1.08
2023-04-02T08:25:16.332Z,0.43
2023-04-02T08:27:43.186Z,2.50
2023-04-02T08:30:11.674Z,0.57
2023-04-02T08:32:41.180Z,1.70
2023-04-02T08:35:11.098Z,0.68
2023-04-02T08:37:37.996Z,0.77
2023-04-02T08:40:07.367Z,2.83
2023-04-02T08:42:39.768Z,0.82
2023-04-02T08:45:23.653Z,2.00
2023-04-02T08:47:53.749Z,1.10
2023-04-02T08:50:38.095Z,1.60
2023-04-02T08:53:25.337Z,1.75
2023-04-02T08:55:59.797Z,1.85
2023-04-02T08:58:43.064Z,1.55
2023-04-02T09:03:58.915Z,4.57
2023-04-02T09:06:27.893Z,2.53
2023-04-02T09:08:54.778Z,0.75
2023-04-02T09:11:21.755Z,1.60
2023-04-02T09:13:56.965Z,2.17
2023-04-02T09:16:43.846Z,2.30
2023-04-02T09:19:25.954Z,1.73
2023-04-02T09:21:57.105Z,1.23
2023-04-02T09:24:24.060Z,0.77
2023-04-02T09:26:51.204Z,0.70
2023-04-02T09:29:46.716Z,1.40
2023-04-02T09:32:28.061Z,1.45
2023-04-02T09:35:34.441Z,2.30
2023-04-02T09:38:22.429Z,2.20
2023-04-02T09:41:19.060Z,2.78
2023-04-02T09:43:46.063Z,1.13
2023-04-02T09:46:23.066Z,0.80
2023-04-02T09:48:53.824Z,1.50
2023-04-02T09:51:26.516Z,1.15
2023-04-02T09:54:02.589Z,0.60
2023-04-02T09:56:33.570Z,1.88
2023-04-02T09:59:21.994Z,1.95
2023-04-02T10:01:55.022Z,1.00
2023-04-02T10:07:29.725Z,1.20
2023-04-02T10:10:04.854Z,0.75
2023-04-02T10:12:34.398Z,0.98
2023-04-02T10:15:01.573Z,0.50
2023-04-02T10:17:31.022Z,0.85
2023-04-02T10:20:11.711Z,0.73
2023-04-02T10:22:38.432Z,0.47
2023-04-02T10:25:14.037Z,0.40
2023-04-02T10:27:52.360Z,0.50
2023-04-02T10:30:29.931Z,1.60
2023-04-02T10:33:11.969Z,1.35
2023-04-02T10:36:00.989Z,0.47
2023-04-02T10:38:39.515Z,0.65
2023-04-02T10:41:28.041Z,0.80
2023-04-02T10:44:09.581Z,1.08
2023-04-02T10:47:03.243Z,0.50
2023-04-02T10:49:39.119Z,0.63
2023-04-02T10:52:17.915Z,1.40
2023-04-02T10:54:51.489Z,0.60
2023-04-02T10:57:42.302Z,0.73
2023-04-02T11:00:12.712Z,0.90
2023-04-02T11:02:57.769Z,0.75
2023-04-02T11:05:47.702Z,1.40
2023-04-02T11:08:44.233Z,0.70
2023-04-02T11:11:31.087Z,0.60
2023-04-02T11:14:05.606Z,1.02
2023-04-02T11:16:32.691Z,0.40
2023-04-02T11:19:08.673Z,0.38
2023-04-02T11:21:57.249Z,0.60
2023-04-02T11:24:34.330Z,0.57
2023-04-02T11:27:05.809Z,0.55
2023-04-02T11:29:34.643Z,0.57
2023-04-02T11:32:27.762Z,0.45
2023-04-02T11:35:05.788Z,0.85
2023-04-02T11:37:41.387Z,0.50
2023-04-02T11:40:11.057Z,0.77
2023-04-02T11:42:40.588Z,1.50
2023-04-02T11:45:22.607Z,0.90
2023-04-02T11:48:01.557Z,0.40
2023-04-02T11:50:32.569Z,0.40
2023-04-02T11:53:24.130Z,1.05
2023-04-02T11:55:53.856Z,0.63
2023-04-02T11:58:42.723Z,0.55
2023-04-02T12:01:18.535Z,0.50
2023-04-02T12:03:51.343Z,1.35
2023-04-02T12:06:52.233Z,0.60
2023-04-02T12:09:25.541Z,0.50
2023-04-02T12:11:57.725Z,0.60
2023-04-02T12:14:36.400Z,0.60
2023-04-02T12:17:06.284Z,0.40
2023-04-02T12:19:34.469Z,0.90
2023-04-02T12:22:01.267Z,0.80
2023-04-02T12:24:31.337Z,0.50
2023-04-02T12:27:16.730Z,0.82
2023-04-02T12:29:43.975Z,1.98
2023-04-02T12:32:30.016Z,0.80
2023-04-02T12:34:58.563Z,0.60
2023-04-02T12:37:27.528Z,0.80
2023-04-02T12:39:56.928Z,0.70
2023-04-02T12:42:28.562Z,3.25
2023-04-02T12:44:55.763Z,0.50
2023-04-02T12:47:22.551Z,1.75
2023-04-02T12:49:49.285Z,1.75
2023-04-02T12:52:17.330Z,1.30
2023-04-02T12:54:46.710Z,1.20
2023-04-02T12:57:25.967Z,1.30
2023-04-02T12:59:53.894Z,3.35
2023-04-02T13:02:28.127Z,1.27
2023-04-02T13:04:57.218Z,1.00
2023-04-02T13:07:25.952Z,1.05
2023-04-02T13:09:56.740Z,1.67
2023-04-02T13:12:40.027Z,1.27
2023-04-02T13:17:50.911Z,0.80
2023-04-02T13:20:40.724Z,2.63
2023-04-02T13:23:46.218Z,1.27
2023-04-02T13:26:27.265Z,0.65
2023-04-02T13:29:09.880Z,0.77
2023-04-02T13:31:36.727Z,1.17
2023-04-02T13:34:03.483Z,0.70
2023-04-02T13:36:30.724Z,2.30
2023-04-02T13:38:57.660Z,0.90
2023-04-02T13:41:27.408Z,1.45
2023-04-02T13:43:55.087Z,0.82
2023-04-02T13:46:23.800Z,1.10
2023-04-02T13:48:51.453Z,1.70
2023-04-02T13:51:19.045Z,1.83
2023-04-02T13:53:51.882Z,1.48
2023-04-02T13:56:19.542Z,2.25
2023-04-02T13:58:46.837Z,1.80
2023-04-02T14:01:14.427Z,1.33
2023-04-02T14:03:41.565Z,1.60
2023-04-02T14:06:39.142Z,1.00
2023-04-02T14:09:25.974Z,0.90
2023-04-02T14:12:26.927Z,1.27
2023-04-02T14:15:18.367Z,1.17
2023-04-02T14:17:54.142Z,1.00
2023-04-02T14:20:35.415Z,1.10
2023-04-02T14:23:20.907Z,1.20
2023-04-02T14:26:13.199Z,2.10
2023-04-02T14:28:41.918Z,3.95
2023-04-02T14:31:23.816Z,1.20
2023-04-02T14:33:53.484Z,1.35
2023-04-02T14:36:35.344Z,2.78
2023-04-02T14:39:11.227Z,1.77
2023-04-02T14:42:00.949Z,1.42
2023-04-02T14:44:30.632Z,2.10
2023-04-02T14:47:29.598Z,1.83
2023-04-02T14:49:59.269Z,1.90
2023-04-02T14:52:27.333Z,1.73
2023-04-02T14:54:57.701Z,1.23
2023-04-02T14:57:37.966Z,1.27
2023-04-02T15:00:07.527Z,1.55
2023-04-02T15:02:49.689Z,1.73
2023-04-02T15:05:19.304Z,2.28
2023-04-02T15:07:52.335Z,1.63
2023-04-02T15:12:53.752Z,1.73
2023-04-02T15:15:45.263Z,1.00
2023-04-02T15:18:15.273Z,1.50
2023-04-02T15:21:00.222Z,0.98
2023-04-02T15:23:42.810Z,1.55
2023-04-02T15:26:17.080Z,1.95
2023-04-02T15:29:25.919Z,2.65
2023-04-02T15:31:58.648Z,2.33
2023-04-02T15:34:57.629Z,1.83
2023-04-02T15:37:28.137Z,2.45
2023-04-02T15:40:16.678Z,1.30
2023-04-02T15:43:22.051Z,2.95
2023-04-02T15:46:04.990Z,0.90
2023-04-02T15:48:36.062Z,1.80
2023-04-02T15:51:24.501Z,2.53
2023-04-02T15:54:13.594Z,3.80
2023-04-02T15:56:44.453Z,1.63
2023-04-02T15:59:17.459Z,1.23
2023-04-02T16:04:34.663Z,1.33
2023-04-02T16:07:27.304Z,1.60
2023-04-02T16:10:30.274Z,1.30
2023-04-02T16:13:19.710Z,2.17
2023-04-02T16:15:52.321Z,1.20
2023-04-02T16:18:37.782Z,1.67
2023-04-02T16:21:04.732Z,1.08
2023-04-02T16:23:37.135Z,1.40
2023-04-02T16:26:17.485Z,1.20
2023-04-02T16:29:13.780Z,1.05
2023-04-02T16:31:40.404Z,1.23
2023-04-02T16:34:28.332Z,1.63
2023-04-02T16:37:03.159Z,5.20
2023-04-02T16:39:44.675Z,2.20
2023-04-02T16:42:20.849Z,1.40
2023-04-02T16:44:51.646Z,1.58
2023-04-02T16:47:39.985Z,1.63
2023-04-02T16:50:34.858Z,1.52
2023-04-02T16:53:22.152Z,2.63
2023-04-02T16:56:01.556Z,1.60
2023-04-02T16:58:34.294Z,1.70
2023-04-02T17:01:13.211Z,1.50
2023-04-02T17:04:08.941Z,1.50
2023-04-02T17:06:52.899Z,1.88
2023-04-02T17:09:51.580Z,1.60
2023-04-02T17:12:36.814Z,1.27
2023-04-02T17:15:27.781Z,1.13
2023-04-02T17:17:59.519Z,1.27
2023-04-02T17:20:26.584Z,1.50
2023-04-02T17:22:53.551Z,1.67
2023-04-02T17:25:28.873Z,1.50
2023-04-02T17:27:56.370Z,2.00
2023-04-02T17:30:48.467Z,2.30
2023-04-02T17:33:17.041Z,2.45
2023-04-02T17:36:15.116Z,2.97
2023-04-02T17:38:54.280Z,2.53
2023-04-02T17:41:23.874Z,3.78
2023-04-02T17:43:58.418Z,3.05
2023-04-02T17:46:43.442Z,2.83
2023-04-02T17:52:02.780Z,2.40
2023-04-02T17:54:49.055Z,3.42
2023-04-02T17:57:36.143Z,3.22
2023-04-02T18:00:11.964Z,2.53
2023-04-02T18:02:58.362Z,2.90
2023-04-02T18:05:29.167Z,2.85
2023-04-02T18:08:24.190Z,3.20
2023-04-02T18:11:22.263Z,3.50
2023-04-02T18:14:24.323Z,2.60
2023-04-02T18:17:17.697Z,3.67
2023-04-02T18:20:10.727Z,3.20
2023-04-02T18:22:56.140Z,3.42
2023-04-02T18:25:32.023Z,3.40
2023-04-02T18:28:15.489Z,3.25
2023-04-02T18:31:06.606Z,3.72
2023-04-02T18:33:43.907Z,3.33
2023-04-02T18:36:22.881Z,4.80
2023-04-02T18:39:01.753Z,3.50
2023-04-02T18:41:42.154Z,4.00
2023-04-02T18:44:27.491Z,3.08
2023-04-02T18:46:55.459Z,2.90
2023-04-02T18:49:43.765Z,4.20
2023-04-02T18:52:16.191Z,2.95
2023-04-02T18:54:53.131Z,2.80
2023-04-02T18:57:27.460Z,3.20
2023-04-02T19:00:04.496Z,3.20
2023-04-02T19:02:51.460Z,3.10
2023-04-02T19:05:26.530Z,3.15
2023-04-02T19:08:00.124Z,2.38
2023-04-02T19:10:31.490Z,2.30
2023-04-02T19:12:58.279Z,2.95
2023-04-02T19:15:40.681Z,3.15
2023-04-02T19:18:20.492Z,2.27
2023-04-02T19:20:52.557Z,2.70
2023-04-02T19:24:00.847Z,2.58
2023-04-02T19:26:33.314Z,3.25
2023-04-02T19:29:18.878Z,2.47
2023-04-02T19:31:54.820Z,3.13
2023-04-02T19:34:24.858Z,2.80
2023-04-02T19:36:55.380Z,4.18
2023-04-02T19:40:01.077Z,2.78
2023-04-02T19:42:54.379Z,2.78
2023-04-02T19:45:40.660Z,3.55
2023-04-02T19:48:17.675Z,3.42
2023-04-02T19:50:44.856Z,3.08
2023-04-02T19:53:11.957Z,4.30
2023-04-02T19:55:39.402Z,3.97
2023-04-02T19:58:18.889Z,4.18
2023-04-02T20:00:46.638Z,5.25
2023-04-02T20:03:13.328Z,4.57
2023-04-02T20:05:40.026Z,4.65
2023-04-02T20:08:06.825Z,4.25
2023-04-02T20:13:01.400Z,8.52
2023-04-02T20:15:28.461Z,3.80
2023-04-02T20:17:55.610Z,3.60
2023-04-02T20:20:22.543Z,3.40
2023-04-02T20:22:50.668Z,3.90
2023-04-02T20:25:17.350Z,4.15
2023-04-02T20:27:44.240Z,4.25
2023-04-02T20:30:11.545Z,3.17
2023-04-02T20:32:38.459Z,2.80
2023-04-02T20:35:06.108Z,3.30
2023-04-02T20:37:33.185Z,4.68
2023-04-02T20:39:59.951Z,5.43
2023-04-02T20:42:26.961Z,3.33
2023-04-02T20:44:53.659Z,3.83
2023-04-02T20:47:20.728Z,3.10
2023-04-02T20:49:47.456Z,3.42
2023-04-02T20:52:14.246Z,4.57
2023-04-02T20:54:41.115Z,3.53
2023-04-02T20:57:07.916Z,4.78
2023-04-02T20:59:34.621Z,3.25
2023-04-02T21:02:01.338Z,3.00
2023-04-02T21:04:28.480Z,3.80
2023-04-02T21:06:57.186Z,2.97
2023-04-02T21:09:24.283Z,2.92
2023-04-02T21:11:51.157Z,3.67
2023-04-02T21:14:18.449Z,2.75
2023-04-02T21:16:45.381Z,3.70
2023-04-02T21:19:12.350Z,4.05
2023-04-02T21:21:39.454Z,2.60
2023-04-02T21:24:07.947Z,4.13
2023-04-02T21:26:37.431Z,2.55
2023-04-02T21:29:04.576Z,4.30
2023-04-02T21:31:37.586Z,4.00
2023-04-02T21:36:37.008Z,3.00
2023-04-02T21:39:11.737Z,4.60
2023-04-02T21:41:40.916Z,6.47
2023-04-02T21:44:08.555Z,4.18
2023-04-02T21:46:38.601Z,3.90
2023-04-02T21:49:06.030Z,2.92
2023-04-02T21:51:33.537Z,4.03
2023-04-02T21:54:00.836Z,4.20
2023-04-02T21:56:29.333Z,3.00
2023-04-02T21:58:57.144Z,3.03
2023-04-02T22:01:28.031Z,3.40
2023-04-02T22:04:00.405Z,2.55
2023-04-02T22:06:29.148Z,2.78
2023-04-02T22:08:57.257Z,2.47
2023-04-02T22:11:26.668Z,3.58
2023-04-02T22:13:53.616Z,5.25
2023-04-02T22:16:22.127Z,3.35
2023-04-02T22:18:49.786Z,3.97
2023-04-02T22:21:17.279Z,2.88
2023-04-02T22:23:44.537Z,4.00
2023-04-02T22:26:12.766Z,3.33
2023-04-02T22:28:40.024Z,4.07
2023-04-02T22:31:09.488Z,4.05
2023-04-02T22:33:36.377Z,2.67
2023-04-02T22:36:03.653Z,5.20
2023-04-02T22:38:31.384Z,2.65
2023-04-02T22:41:04.042Z,2.58
2023-04-02T22:43:30.747Z,4.50
2023-04-02T22:45:57.431Z,3.38
2023-04-02T22:48:24.167Z,4.40
2023-04-02T22:50:51.543Z,2.28
2023-04-02T22:53:18.860Z,4.00
2023-04-02T22:55:45.576Z,3.60
2023-04-02T22:58:12.298Z,4.50
2023-04-02T23:00:39.424Z,4.18
2023-04-02T23:03:06.784Z,4.60
2023-04-02T23:05:33.442Z,4.50
2023-04-02T23:08:00.138Z,3.08
2023-04-02T23:10:29.124Z,2.25
2023-04-02T23:12:57.620Z,3.15
2023-04-02T23:15:24.284Z,5.00
2023-04-02T23:17:50.962Z,3.70
2023-04-02T23:20:17.838Z,2.40
2023-04-02T23:22:44.551Z,3.83
2023-04-02T23:25:11.230Z,2.72
2023-04-02T23:27:37.954Z,3.50
2023-04-02T23:30:06.581Z,2.35
2023-04-02T23:32:33.734Z,4.63
2023-04-02T23:35:00.424Z,3.85
2023-04-02T23:37:27.160Z,3.72
2023-04-02T23:39:53.801Z,6.05
2023-04-02T23:42:20.490Z,3.83
2023-04-02T23:44:47.181Z,3.53
2023-04-02T23:47:13.899Z,4.32
2023-04-02T23:49:42.218Z,3.63
2023-04-02T23:52:08.893Z,5.80
2023-04-02T23:54:35.749Z,3.58
2023-04-02T23:57:02.450Z,4.90
2023-04-02T23:59:29.207Z,3.80
